createdAt,value
2023-03-02T00:03:33.632Z,6.56
2023-03-02T00:08:37.786Z,6.61
2023-03-02T00:13:42.899Z,6.65
2023-03-02T00:18:46.328Z,6.62
2023-03-02T00:23:49.776Z,6.59
2023-03-02T00:28:54.597Z,6.42
2023-03-02T00:33:58.079Z,6.38
2023-03-02T00:39:01.567Z,6.24
2023-03-02T00:44:06.558Z,6.22
2023-03-02T00:49:09.990Z,6.23
2023-03-02T00:54:13.420Z,6.16
2023-03-02T00:59:27.202Z,6.08
2023-03-02T01:04:42.083Z,6.05
2023-03-02T01:09:46.333Z,6.10
2023-03-02T01:14:51.768Z,5.92
2023-03-02T01:19:56.370Z,6.07
2023-03-02T01:24:59.862Z,6.24
2023-03-02T01:30:05.596Z,6.23
2023-03-02T01:35:09.963Z,6.24
2023-03-02T01:40:15.041Z,6.25
2023-03-02T01:45:55.853Z,6.31
2023-03-02T01:51:19.174Z,6.14
2023-03-02T01:56:26.120Z,5.98
2023-03-02T02:01:30.495Z,5.89
2023-03-02T02:06:38.649Z,5.87
2023-03-02T02:11:43.364Z,5.94
2023-03-02T02:16:47.129Z,6.11
2023-03-02T02:21:52.147Z,6.03
2023-03-02T02:26:58.343Z,6.05
2023-03-02T02:32:03.957Z,5.93
2023-03-02T02:37:09.770Z,5.81
2023-03-02T02:42:17.473Z,5.91
2023-03-02T02:47:22.857Z,5.72
2023-03-02T02:52:28.162Z,5.87
2023-03-02T02:57:33.095Z,5.89
2023-03-02T03:02:42.115Z,5.95
2023-03-02T03:07:45.860Z,5.89
2023-03-02T03:12:51.239Z,5.97
2023-03-02T03:17:57.384Z,5.87
2023-03-02T03:23:02.782Z,6.23
2023-03-02T03:28:09.438Z,6.20
2023-03-02T03:33:13.088Z,6.21
2023-03-02T03:38:17.717Z,6.24
2023-03-02T03:43:24.547Z,6.20
2023-03-02T03:48:30.703Z,6.16
2023-03-02T03:53:34.255Z,6.15
2023-03-02T03:58:39.922Z,6.09
2023-03-02T04:03:43.593Z,6.33
2023-03-02T04:08:47.250Z,6.53
2023-03-02T04:13:52.266Z,6.46
2023-03-02T04:18:55.880Z,6.59
2023-03-02T04:23:59.392Z,6.70
2023-03-02T04:29:05.300Z,6.99
2023-03-02T04:34:10.516Z,7.07
2023-03-02T04:39:17.928Z,7.10
2023-03-02T04:44:27.145Z,7.13
2023-03-02T04:49:30.564Z,7.32
2023-03-02T04:54:34.047Z,7.48
2023-03-02T04:59:38.882Z,7.38
2023-03-02T05:04:42.564Z,7.56
2023-03-02T05:09:46.144Z,7.58
2023-03-02T05:14:51.013Z,7.66
2023-03-02T05:19:54.432Z,7.37
2023-03-02T05:24:57.810Z,7.50
2023-03-02T05:30:02.648Z,7.58
2023-03-02T05:35:06.961Z,7.80
2023-03-02T05:40:12.295Z,7.71
2023-03-02T05:45:21.913Z,7.74
2023-03-02T05:50:25.563Z,7.69
2023-03-02T05:55:29.829Z,7.70
2023-03-02T06:00:34.716Z,7.94
2023-03-02T06:05:38.300Z,7.90
2023-03-02T06:10:42.083Z,8.24
2023-03-02T06:15:46.968Z,8.13
2023-03-02T06:20:51.494Z,7.74
2023-03-02T06:25:55.626Z,7.91
2023-03-02T06:31:00.581Z,7.92
2023-03-02T06:36:04.423Z,7.83
2023-03-02T06:41:07.892Z,8.29
2023-03-02T06:46:13.068Z,8.21
2023-03-02T06:51:16.512Z,8.45
2023-03-02T06:56:19.960Z,8.36
2023-03-02T07:01:24.838Z,8.55
2023-03-02T07:06:28.346Z,8.76
2023-03-02T07:11:32.137Z,8.79
2023-03-02T07:16:37.359Z,8.71
2023-03-02T07:21:44.077Z,8.52
2023-03-02T07:26:47.463Z,8.79
2023-03-02T07:31:56.970Z,8.87
2023-03-02T07:37:00.475Z,8.92
2023-03-02T07:42:07.017Z,8.11
2023-03-02T07:47:11.985Z,8.66
2023-03-02T07:52:15.621Z,8.73
2023-03-02T07:57:19.097Z,8.60
2023-03-02T08:02:25.450Z,8.51
2023-03-02T08:07:29.018Z,9.02
2023-03-02T08:12:32.436Z,8.98
2023-03-02T08:17:37.334Z,8.46
2023-03-02T08:22:40.813Z,9.08
2023-03-02T08:27:44.776Z,9.29
2023-03-02T08:32:49.643Z,9.40
2023-03-02T08:37:54.092Z,9.59
2023-03-02T08:42:58.913Z,9.99
2023-03-02T08:48:04.198Z,9.57
2023-03-02T08:53:07.655Z,9.64
2023-03-02T08:58:11.175Z,9.69
2023-03-02T09:03:16.107Z,9.67
2023-03-02T09:08:19.615Z,9.73
2023-03-02T09:13:23.109Z,9.88
2023-03-02T09:18:30.908Z,10.05
2023-03-02T09:23:35.464Z,9.87
2023-03-02T09:28:39.746Z,9.95
2023-03-02T09:33:44.824Z,9.98
2023-03-02T09:38:48.400Z,10.25
2023-03-02T09:44:10.913Z,10.19
2023-03-02T09:49:24.144Z,10.48
2023-03-02T09:54:27.742Z,10.21
2023-03-02T09:59:36.010Z,10.61
2023-03-02T10:04:44.619Z,10.49
2023-03-02T10:09:48.187Z,9.89
2023-03-02T10:14:58.292Z,10.03
2023-03-02T10:25:19.088Z,10.06
2023-03-02T10:30:27.769Z,9.96
2023-03-02T10:35:33.077Z,10.14
2023-03-02T10:40:42.790Z,10.96
2023-03-02T10:45:46.950Z,11.38
2023-03-02T10:50:55.560Z,11.49
2023-03-02T10:55:59.154Z,11.39
2023-03-02T11:01:04.703Z,11.58
2023-03-02T11:06:19.542Z,11.93
2023-03-02T11:11:24.809Z,12.22
2023-03-02T11:16:32.552Z,12.43
2023-03-02T11:21:41.220Z,12.42
2023-03-02T11:26:47.441Z,12.58
2023-03-02T11:31:52.856Z,12.90
2023-03-02T11:37:03.426Z,12.35
2023-03-02T11:42:10.740Z,12.60
2023-03-02T11:47:14.618Z,12.64
2023-03-02T11:52:21.732Z,12.73
2023-03-02T11:57:29.066Z,12.80
2023-03-02T12:02:32.568Z,13.07
2023-03-02T12:07:37.457Z,12.94
2023-03-02T12:12:44.475Z,13.19
2023-03-02T12:17:47.970Z,13.35
2023-03-02T12:22:52.917Z,12.17
2023-03-02T12:27:56.516Z,12.32
2023-03-02T12:33:18.915Z,13.24
2023-03-02T12:38:30.825Z,13.30
2023-03-02T12:43:35.003Z,13.38
2023-03-02T12:48:43.417Z,13.53
2023-03-02T12:53:49.143Z,13.88
2023-03-02T12:58:54.358Z,13.67
2023-03-02T13:04:02.330Z,13.23
2023-03-02T13:09:07.494Z,13.58
2023-03-02T13:14:20.175Z,13.71
2023-03-02T13:19:24.213Z,13.79
2023-03-02T13:24:34.286Z,13.52
2023-03-02T13:29:37.796Z,13.86
2023-03-02T13:34:49.329Z,13.73
2023-03-02T13:39:58.121Z,13.54
2023-03-02T13:45:10.588Z,11.53
2023-03-02T13:50:19.200Z,12.60
2023-03-02T13:55:24.922Z,12.44
2023-03-02T14:00:32.664Z,12.66
2023-03-02T14:05:36.177Z,12.71
2023-03-02T14:10:41.215Z,12.19
2023-03-02T14:15:48.874Z,11.82
2023-03-02T14:20:52.461Z,11.30
2023-03-02T14:25:57.869Z,11.85
2023-03-02T14:31:01.336Z,11.89
2023-03-02T14:36:06.098Z,11.50
2023-03-02T14:41:14.912Z,11.85
2023-03-02T14:46:18.414Z,11.82
2023-03-02T14:51:23.580Z,11.82
2023-03-02T14:56:28.757Z,11.61
2023-03-02T15:01:32.694Z,11.82
2023-03-02T15:06:39.197Z,11.71
2023-03-02T15:11:44.429Z,12.25
2023-03-02T15:16:47.937Z,11.76
2023-03-02T15:21:52.841Z,11.89
2023-03-02T15:26:59.961Z,11.67
2023-03-02T15:32:03.552Z,11.42
2023-03-02T15:37:07.017Z,11.80
2023-03-02T15:42:13.800Z,11.42
2023-03-02T15:47:17.833Z,11.33
2023-03-02T15:52:21.559Z,11.57
2023-03-02T15:57:26.464Z,11.80
2023-03-02T16:02:29.959Z,11.69
2023-03-02T16:07:34.369Z,11.25
2023-03-02T16:12:39.789Z,11.24
2023-03-02T16:17:43.449Z,11.13
2023-03-02T16:22:47.037Z,11.04
2023-03-02T16:27:54.252Z,10.29
2023-03-02T16:32:58.872Z,11.30
2023-03-02T16:38:03.053Z,11.30
2023-03-02T16:43:08.997Z,11.17
2023-03-02T16:48:13.100Z,11.09
2023-03-02T16:53:18.020Z,11.21
2023-03-02T16:58:28.621Z,10.36
2023-03-02T17:03:32.208Z,10.67
2023-03-02T17:08:35.795Z,10.01
2023-03-02T17:13:40.907Z,10.93
2023-03-02T17:18:46.817Z,10.99
2023-03-02T17:23:50.387Z,10.73
2023-03-02T17:28:55.380Z,10.91
2023-03-02T17:33:58.846Z,10.45
2023-03-02T17:39:02.405Z,10.73
2023-03-02T17:44:07.341Z,10.44
2023-03-02T17:49:11.212Z,10.84
2023-03-02T17:54:14.667Z,11.12
2023-03-02T17:59:19.673Z,10.96
2023-03-02T18:04:23.315Z,11.28
2023-03-02T18:09:26.820Z,11.19
2023-03-02T18:14:35.364Z,10.93
2023-03-02T18:19:39.469Z,10.93
2023-03-02T18:24:43.235Z,10.97
2023-03-02T18:29:48.259Z,9.56
2023-03-02T18:34:51.689Z,10.90
2023-03-02T18:39:55.204Z,11.13
2023-03-02T18:45:00.232Z,11.10
2023-03-02T18:50:04.466Z,10.01
2023-03-02T18:55:09.013Z,11.08
2023-03-02T19:00:18.237Z,10.88
2023-03-02T19:05:21.971Z,10.67
2023-03-02T19:10:25.638Z,10.78
2023-03-02T19:15:33.012Z,10.86
2023-03-02T19:20:36.877Z,11.21
2023-03-02T19:25:40.483Z,11.32
2023-03-02T19:30:45.997Z,11.13
2023-03-02T19:35:52.019Z,11.02
2023-03-02T19:40:57.104Z,10.70
2023-03-02T19:46:02.144Z,10.71
2023-03-02T19:51:06.428Z,10.75
2023-03-02T19:56:12.825Z,10.80
2023-03-02T20:01:21.485Z,11.16
2023-03-02T20:06:30.452Z,10.77
2023-03-02T20:11:34.649Z,10.74
2023-03-02T20:16:40.015Z,10.79
2023-03-02T20:21:43.608Z,10.78
2023-03-02T20:26:47.125Z,10.58
2023-03-02T20:31:52.416Z,10.77
2023-03-02T20:36:55.985Z,10.73
2023-03-02T20:42:00.360Z,10.56
2023-03-02T20:47:08.304Z,10.65
2023-03-02T20:52:12.549Z,10.50
2023-03-02T20:57:17.736Z,10.46
2023-03-02T21:02:23.737Z,10.50
2023-03-02T21:07:27.240Z,10.16
2023-03-02T21:12:30.695Z,10.30
2023-03-02T21:17:36.527Z,10.26
2023-03-02T21:22:40.064Z,9.92
2023-03-02T21:27:44.125Z,10.33
2023-03-02T21:32:49.367Z,10.20
2023-03-02T21:37:55.143Z,10.22
2023-03-02T21:42:59.142Z,10.25
2023-03-02T21:48:05.105Z,9.95
2023-03-02T21:53:08.761Z,9.88
2023-03-02T21:58:12.212Z,10.13
2023-03-02T22:03:18.100Z,9.28
2023-03-02T22:08:22.064Z,9.18
2023-03-02T22:13:26.899Z,9.03
2023-03-02T22:18:32.579Z,9.71
2023-03-02T22:23:36.095Z,9.75
2023-03-02T22:28:41.009Z,9.81
2023-03-02T22:33:45.933Z,8.78
2023-03-02T22:38:49.756Z,9.19
2023-03-02T22:43:53.489Z,8.86
2023-03-02T22:48:58.344Z,9.17
2023-03-02T22:54:02.205Z,9.45
2023-03-02T22:59:10.460Z,8.79
2023-03-02T23:04:19.777Z,9.42
2023-03-02T23:09:25.570Z,8.96
2023-03-02T23:14:31.180Z,9.58
2023-03-02T23:19:36.109Z,9.24
2023-03-02T23:24:39.652Z,9.51
2023-03-02T23:29:43.431Z,9.64
2023-03-02T23:34:48.389Z,9.21
2023-03-02T23:39:52.096Z,8.86
2023-03-02T23:44:56.198Z,9.33
2023-03-02T23:50:00.993Z,9.09
2023-03-02T23:55:04.678Z,9.16
